createdAt,value
2022-08-09T00:02:30.182Z,101963.16
2022-08-09T00:07:44.784Z,101961.81
2022-08-09T00:12:47.152Z,101955.28
2022-08-09T00:18:05.910Z,101972.50
2022-08-09T00:23:56.288Z,101954.31
2022-08-09T00:28:35.943Z,101961.63
2022-08-09T00:33:51.069Z,101957.97
2022-08-09T00:38:54.092Z,101960.56
2022-08-09T00:44:14.658Z,101955.47
2022-08-09T00:49:18.159Z,101955.38
2022-08-09T00:54:22.955Z,101959.72
2022-08-09T00:59:41.610Z,101961.03
2022-08-09T01:04:54.791Z,101964.81
2022-08-09T01:10:18.621Z,101961.34
2022-08-09T01:15:29.494Z,101960.09
2022-08-09T01:20:54.804Z,101961.41
2022-08-09T01:26:15.009Z,101958.66
2022-08-09T01:32:29.703Z,101962.19
2022-08-09T01:36:43.653Z,101956.41
2022-08-09T01:41:55.495Z,101961.41
2022-08-09T01:47:04.573Z,101958.81
2022-08-09T01:52:14.531Z,101953.72
2022-08-09T01:57:24.048Z,101955.66
2022-08-09T02:02:30.844Z,101958.16
2022-08-09T02:08:35.748Z,101954.31
2022-08-09T02:13:03.455Z,101960.16
2022-08-09T02:18:10.708Z,101958.47
2022-08-09T02:23:20.273Z,101953.94
2022-08-09T02:28:35.330Z,101953.06
2022-08-09T02:34:07.137Z,101965.84
2022-08-09T02:39:20.113Z,101961.53
2022-08-09T02:44:40.485Z,101964.22
2022-08-09T02:50:01.167Z,101955.38
2022-08-09T02:55:20.554Z,101951.34
2022-08-09T03:00:29.734Z,101947.88
2022-08-09T03:05:34.592Z,101947.97
2022-08-09T03:10:38.386Z,101945.09
2022-08-09T03:16:06.613Z,101948.19
2022-08-09T03:21:06.229Z,101945.66
2022-08-09T03:26:08.847Z,101941.81
2022-08-09T03:31:22.695Z,101945.66
2022-08-09T03:36:27.316Z,101954.72
2022-08-09T03:41:46.083Z,101963.63
2022-08-09T03:46:50.655Z,101953.09
2022-08-09T03:52:00.414Z,101957.69
2022-08-09T03:57:12.107Z,101962.00
2022-08-09T04:02:19.792Z,101971.53
2022-08-09T04:07:47.816Z,101972.84
2022-08-09T04:12:54.572Z,101966.06
2022-08-09T04:17:57.714Z,101980.16
2022-08-09T04:23:00.176Z,101982.00
2022-08-09T04:28:03.957Z,101979.38
2022-08-09T04:33:06.106Z,101983.81
2022-08-09T04:38:10.968Z,101993.13
2022-08-09T04:43:13.719Z,101996.78
2022-08-09T04:48:17.277Z,101996.78
2022-08-09T04:53:19.711Z,101998.41
2022-08-09T04:58:21.708Z,101997.94
2022-08-09T05:03:42.502Z,102001.19
2022-08-09T05:08:48.106Z,101992.44
2022-08-09T05:13:50.706Z,101997.72
2022-08-09T05:18:59.283Z,101999.47
2022-08-09T05:24:03.989Z,101997.19
2022-08-09T05:29:06.860Z,101996.13
2022-08-09T05:34:19.191Z,101996.69
2022-08-09T05:39:28.937Z,102001.41
2022-08-09T05:44:34.949Z,102007.94
2022-08-09T05:50:25.347Z,102010.13
2022-08-09T05:55:06.708Z,102008.72
2022-08-09T06:00:09.952Z,102012.72
2022-08-09T06:05:13.250Z,102024.25
2022-08-09T06:10:18.104Z,102013.50
2022-08-09T06:15:21.331Z,102009.28
2022-08-09T06:20:23.403Z,102008.91
2022-08-09T06:25:26.306Z,102007.06
2022-08-09T06:30:29.220Z,102024.44
2022-08-09T06:35:35.615Z,102026.84
2022-08-09T06:40:54.751Z,102032.13
2022-08-09T06:46:04.859Z,102036.75
2022-08-09T06:51:12.693Z,102036.69
2022-08-09T06:56:18.306Z,102036.09
2022-08-09T07:01:24.029Z,102042.94
2022-08-09T07:06:29.834Z,102043.91
2022-08-09T07:11:45.665Z,102041.00
2022-08-09T07:16:57.925Z,102041.72
2022-08-09T07:22:00.634Z,102046.50
2022-08-09T07:27:04.127Z,102040.81
2022-08-09T07:32:13.122Z,102042.78
2022-08-09T07:37:15.787Z,102037.09
2022-08-09T07:42:18.297Z,102043.81
2022-08-09T07:47:20.921Z,102045.75
2022-08-09T07:52:30.075Z,102046.63
2022-08-09T07:57:36.130Z,102046.72
2022-08-09T08:02:42.569Z,102038.41
2022-08-09T08:08:43.177Z,102030.41
2022-08-09T08:13:06.642Z,102038.53
2022-08-09T08:18:14.518Z,102034.84
2022-08-09T08:23:18.813Z,102045.16
2022-08-09T08:28:32.491Z,102035.31
2022-08-09T08:33:49.464Z,102041.56
2022-08-09T08:38:56.879Z,102047.25
2022-08-09T08:44:02.658Z,102056.00
2022-08-09T08:49:07.628Z,102051.00
2022-08-09T08:54:20.624Z,102055.53
2022-08-09T08:59:44.601Z,102056.47
2022-08-09T09:04:53.019Z,102051.94
2022-08-09T09:10:01.444Z,102055.59
2022-08-09T09:15:06.651Z,102051.38
2022-08-09T09:20:15.320Z,102063.06
2022-08-09T09:26:04.736Z,102055.03
2022-08-09T09:30:58.126Z,102057.78
2022-08-09T09:36:19.966Z,102053.69
2022-08-09T09:41:33.534Z,102046.78
2022-08-09T09:46:52.482Z,102058.00
2022-08-09T09:52:06.072Z,102058.16
2022-08-09T09:58:02.605Z,102051.94
2022-08-09T10:02:46.669Z,102047.13
2022-08-09T10:08:11.039Z,102052.50
2022-08-09T10:13:11.044Z,102058.56
2022-08-09T10:18:26.766Z,102070.19
2022-08-09T10:23:28.992Z,102049.22
2022-08-09T10:28:37.602Z,102060.78
2022-08-09T10:34:10.692Z,102056.38
2022-08-09T10:39:03.700Z,102052.22
2022-08-09T10:44:24.828Z,102045.47
2022-08-09T10:49:51.545Z,102047.69
2022-08-09T10:54:56.049Z,102044.63
2022-08-09T11:00:01.854Z,102034.59
2022-08-09T11:05:24.801Z,102043.59
2022-08-09T11:10:54.379Z,102041.84
2022-08-09T11:16:35.080Z,102034.16
2022-08-09T11:22:05.383Z,102038.00
2022-08-09T11:28:02.561Z,102025.03
2022-08-09T11:33:10.546Z,102017.59
2022-08-09T11:38:21.861Z,102020.75
2022-08-09T11:43:32.372Z,102009.34
2022-08-09T11:48:47.120Z,102006.72
2022-08-09T11:54:12.998Z,102010.91
2022-08-09T11:59:30.292Z,102007.94
2022-08-09T12:04:38.003Z,102007.28
2022-08-09T12:09:50.327Z,102010.34
2022-08-09T12:15:07.745Z,102001.28
2022-08-09T12:20:21.568Z,101991.44
2022-08-09T12:25:35.992Z,101995.78
2022-08-09T12:30:39.667Z,101996.44
2022-08-09T12:35:42.945Z,101984.03
2022-08-09T12:40:46.919Z,101982.19
2022-08-09T12:45:59.661Z,101984.63
2022-08-09T12:51:04.007Z,101968.84
2022-08-09T12:56:14.046Z,101962.47
2022-08-09T13:01:31.658Z,101962.75
2022-08-09T13:06:40.091Z,101956.59
2022-08-09T13:12:01.689Z,101951.19
2022-08-09T13:17:08.290Z,101959.06
2022-08-09T13:22:35.866Z,101943.47
2022-08-09T13:27:54.695Z,101939.44
2022-08-09T13:32:57.875Z,101931.09
2022-08-09T13:38:00.392Z,101931.75
2022-08-09T13:43:05.191Z,101931.84
2022-08-09T13:48:11.578Z,101933.56
2022-08-09T13:53:17.019Z,101933.06
2022-08-09T13:58:18.937Z,101922.38
2022-08-09T14:04:03.366Z,101930.00
2022-08-09T14:08:43.904Z,101920.75
2022-08-09T14:14:22.280Z,101907.19
2022-08-09T14:19:08.452Z,101910.66
2022-08-09T14:24:22.418Z,101902.88
2022-08-09T14:30:34.966Z,101901.03
2022-08-09T14:34:56.911Z,101902.44
2022-08-09T14:39:58.878Z,101909.66
2022-08-09T14:46:40.307Z,101893.50
2022-08-09T14:50:24.960Z,101898.78
2022-08-09T14:55:29.221Z,101901.03
2022-08-09T15:00:36.359Z,101895.66
2022-08-09T15:05:39.675Z,101899.66
2022-08-09T15:11:01.709Z,101896.97
2022-08-09T15:16:09.617Z,101891.22
2022-08-09T15:22:00.397Z,101899.25
2022-08-09T15:26:33.721Z,101889.88
2022-08-09T15:31:41.817Z,101877.22
2022-08-09T15:36:48.070Z,101880.72
2022-08-09T15:41:50.808Z,101881.63
2022-08-09T15:46:52.729Z,101882.72
2022-08-09T15:52:03.626Z,101867.41
2022-08-09T15:57:09.478Z,101864.59
2022-08-09T16:02:13.418Z,101857.91
2022-08-09T16:07:15.817Z,101860.31
2022-08-09T16:12:17.810Z,101858.03
2022-08-09T16:17:22.092Z,101856.22
2022-08-09T16:22:24.257Z,101868.75
2022-08-09T16:27:29.714Z,101866.59
2022-08-09T16:32:54.499Z,101861.44
2022-08-09T16:37:56.952Z,101862.03
2022-08-09T16:43:02.247Z,101862.16
2022-08-09T16:48:43.400Z,101858.66
2022-08-09T16:53:33.823Z,101852.75
2022-08-09T16:58:37.140Z,101859.47
2022-08-09T17:03:41.752Z,101849.13
2022-08-09T17:08:58.799Z,101847.84
2022-08-09T17:14:04.003Z,101850.53
2022-08-09T17:19:06.318Z,101840.59
2022-08-09T17:24:28.347Z,101850.41
2022-08-09T17:29:37.745Z,101851.34
2022-08-09T17:35:04.430Z,101859.50
2022-08-09T17:40:02.597Z,101863.44
2022-08-09T17:45:15.658Z,101860.31
2022-08-09T17:50:36.716Z,101861.09
2022-08-09T17:55:48.790Z,101863.56
2022-08-09T18:00:51.754Z,101863.91
2022-08-09T18:05:58.261Z,101860.09
2022-08-09T18:11:03.978Z,101864.72
2022-08-09T18:16:08.947Z,101876.72
2022-08-09T18:21:19.611Z,101873.56
2022-08-09T18:26:26.285Z,101876.38
2022-08-09T18:31:51.565Z,101880.03
2022-08-09T18:36:50.673Z,101887.25
2022-08-09T18:41:56.457Z,101887.56
2022-08-09T18:47:07.517Z,101893.16
2022-08-09T18:52:12.714Z,101902.22
2022-08-09T18:57:15.728Z,101897.22
2022-08-09T19:02:18.497Z,101904.31
2022-08-09T19:07:20.985Z,101908.19
2022-08-09T19:12:24.557Z,101908.78
2022-08-09T19:17:31.062Z,101908.38
2022-08-09T19:22:33.408Z,101913.66
2022-08-09T19:27:36.527Z,101915.59
2022-08-09T19:32:39.188Z,101928.63
2022-08-09T19:37:56.386Z,101929.81
2022-08-09T19:43:00.130Z,101924.84
2022-08-09T19:48:03.192Z,101931.13
2022-08-09T19:53:04.866Z,101933.91
2022-08-09T19:58:07.398Z,101933.72
2022-08-09T20:04:09.978Z,101933.16
2022-08-09T20:08:41.113Z,101934.88
2022-08-09T20:13:53.611Z,101933.06
2022-08-09T20:19:42.145Z,101933.56
2022-08-09T20:24:19.395Z,101941.63
2022-08-09T20:29:37.989Z,101932.38
2022-08-09T20:34:40.570Z,101938.63
2022-08-09T20:40:15.200Z,101939.72
2022-08-09T20:45:56.765Z,101936.91
2022-08-09T20:50:47.876Z,101937.78
2022-08-09T20:56:00.758Z,101936.63
2022-08-09T21:01:33.411Z,101937.25
2022-08-09T21:06:29.379Z,101936.06
2022-08-09T21:16:56.182Z,101933.69
2022-08-09T21:21:58.681Z,101927.97
2022-08-09T21:27:10.374Z,101918.28
2022-08-09T21:32:33.752Z,101915.69
2022-08-09T21:37:47.134Z,101922.69
2022-08-09T21:43:00.116Z,101926.47
2022-08-09T21:48:03.208Z,101933.25
2022-08-09T21:53:15.603Z,101926.81
2022-08-09T21:58:30.917Z,101933.56
2022-08-09T22:03:33.242Z,101936.06
2022-08-09T22:08:39.034Z,101942.63
2022-08-09T22:13:45.904Z,101949.41
2022-08-09T22:18:54.227Z,101946.84
2022-08-09T22:23:59.483Z,101948.97
2022-08-09T22:29:05.340Z,101961.00
2022-08-09T22:34:15.023Z,101960.41
2022-08-09T22:39:46.967Z,101962.03
2022-08-09T22:44:38.929Z,101968.72
2022-08-09T22:49:51.980Z,101965.50
2022-08-09T22:54:54.029Z,101969.34
2022-08-09T22:59:59.419Z,101966.34
2022-08-09T23:05:01.332Z,101960.75
2022-08-09T23:10:07.932Z,101959.66
2022-08-09T23:15:10.483Z,101971.28
2022-08-09T23:20:12.831Z,101965.16
2022-08-09T23:25:14.898Z,101955.81
2022-08-09T23:30:17.355Z,101942.66
2022-08-09T23:35:19.446Z,101944.97
2022-08-09T23:40:21.331Z,101936.13
2022-08-09T23:45:37.106Z,101939.59
2022-08-09T23:50:40.893Z,101940.16
2022-08-09T23:55:49.547Z,101942.28
